Airfield :







YOU CAN JOIN US ON...

 
LOGIN :

Register | Disclaimer

   EN    FR    IT 

 









Legend :    VFR   Marginal VFR   IFR   Intensive IFR   Very Intensive IFR
Visi :
Ceiling :
>= 8 km
>= 3000ft
5 to 8 km
1000 to 3000 ft
1500m to 5 km
500 to 1000 ft
800 to 1500m
200 to 500 ft
< 800m
< 200 ft
Symbols :   Thunderstorms  Fog  Heavy snow  Heavy precipitations  Wind > 20 kt






- Airport Elevation : 36 ft
- IATA code : PTP


TFFR - Le Raizet

CURRENT METAR :
  • 231000Z AUTO 13007KT 6000 -RA FEW008/// BKN047/// OVC058/// ///TCU 25/24 Q1015 TEMPO 4000 SHRA BKN012TCU

EXPIRED METARs :
  • 230930Z AUTO 16008KT 9999 SCT007/// BKN046/// OVC058/// ///CB 25/24 Q1015 TEMPO 4000 SHRA BKN012TCU
  • 230900Z AUTO 13006KT 4700 -RA BR FEW007/// BKN011/// BKN018/// ///TCU 25/24 Q1015 BECMG 9999 NSW SCT030
  • 230830Z AUTO 13005KT 9000 FEW011/// SCT029/// BKN035/// ///TCU 25/24 Q1014 TEMPO 4000 SHRA BECMG SCT030
  • 230800Z AUTO 12009KT 3600 RA BR BKN009/// BKN017/// BKN023/// 25/24 Q1014
  • 230730Z AUTO 15009KT 9000 3100 +RA FEW010/// SCT024/// BKN041/// ///TCU 25/24 Q1014 TEMPO 4000 SHRA
  • 230700Z AUTO 15011KT 4100 RA BR FEW013/// SCT024/// BKN031/// ///TCU 25/24 Q1014 NOSIG
  • 230630Z AUTO VRB02KT 9999 FEW038/// BKN048/// OVC054/// ///TCU 26/24 Q1014 TEMPO 4000 SHRA
  • 230600Z AUTO 31002KT 9999 FEW045/// BKN052/// ///TCU 26/23 Q1014 TEMPO 4000 SHRA
  • 230530Z AUTO VRB02KT 9999 SCT056 26/23 Q1014 TEMPO 4000 SHRA BKN018TCU

TAF AMD TAF TFFR
Valid from the 23 at 09:00 until the 24 at 06:00 UTC


230959Z 2309/2406 VRB02KT 9999 SCT030
PROB30
TEMPO 2309/2312 4000 SHRA FEW012CB BKN015TCU
BECMG 2310/2312 12010KT
PROB40
TEMPO 2312/2401 2500 SHRA FEW015CB BKN018TCU
BECMG 2323/2401 VRB02KT
TTZP FIR / North America



MET'MAP, your aeronautical weather chart ! - Copyright ORBIFLY December 2007 - Disclaimer

ORBIFLY MET'MAP TEAM :

Programming & Development : Alexandra Zaïnal
Original concept : Baudouin d'Aumeries
Technical & hardware support : Manuel Goepfert
Assistance : Marc-Olivier Méhu




SOURCES & CREDITS :

   NOAA